• Join FlightAware (Why Join?)
  • Login
  • US Flag 
12:44AM EDT


 

Airport Tracker/Info


-or-


 

Live Flight TrackerFlight Track Log ✈ N610DA ✈ 26-Sep-2013 ✈ KCRG - KCRG

Flight Track Log - Related Links

Times and Time Zones

All times are in EDT time to prevent confusion due to time zone crossing. See the N610DA flight status page for this flight to view local times or setup timezone preferences in your user account.

Time Position Orientation Groundspeed Altitude Reporting Facility
EDT Latitude Longitude Course Direction KTS MPH feet Rate Location/Type
05:20PM 30.3533 -81.5325 275° West 82 94 600  Level Jacksonville Center
05:21PM 30.3556 -81.5639 275° West 101 116 1,300 660 Climbing Jacksonville Center
05:22PM 30.3517 -81.5950 262° West 103 119 2,000 600 Climbing Jacksonville Center
05:23PM 30.3522 -81.6311 271° West 104 120 2,600 420 Climbing Jacksonville Center
05:24PM 30.3503 -81.6650 266° West 112 129 2,900 180 Climbing Jacksonville Center
05:25PM 30.3236 -81.6989 228° Southwest 123 142 3,000  Climbing Jacksonville Center
05:26PM 30.3050 -81.7281 234° Southwest 123 142 2,900 -60 Descending Jacksonville Center
05:27PM 30.2864 -81.7572 234° Southwest 122 140 2,900  Level Jacksonville Center
05:28PM 30.2639 -81.7886 230° Southwest 123 142 3,000  Climbing Jacksonville Center
05:29PM 30.2453 -81.8250 239° Southwest 132 152 2,900 -60 Descending Jacksonville Center
05:30PM 30.2311 -81.8611 246° West 121 139 2,900  Level Jacksonville Center
05:31PM 30.2042 -81.9094 237° Southwest 127 146 2,900  Level Jacksonville Center
05:32PM 30.2128 -81.9336 292° West 114 131 2,900  Level Jacksonville Center
05:33PM 30.2278 -81.9669 298° West 116 133 2,900  Level Jacksonville Center
05:34PM 30.2175 -81.9983 249° West 131 151 3,000 -180 Climbing Jacksonville Center
05:35PM 30.2072 -82.0394 254° West 103 119 2,600 -540 Descending Jacksonville Center
05:36PM 30.2239 -82.0200 45° Northeast 113 130 1,900 -480 Descending Jacksonville Center
05:37PM 30.2297 -81.9814 80° East 108 124 1,700 -480 Descending Jacksonville Center
05:38PM 30.2233 -81.9478 102° East 100 115 1,000 -480 Descending Jacksonville Center
05:39PM 30.2147 -81.9192 109° East 93 107 700 -180 Descending Jacksonville Center
05:41PM 30.1811 -81.8858 139° Southeast 100 115 600 -60 Descending Jacksonville Center
05:41PM 30.1811 -81.8761 90° East 110 127 600  Level Jacksonville Center
05:43PM 30.1814 -81.8374 90° East  Level FlightAware Approximate
05:44PM 30.2292 -81.8781 90° East 82 94 700  Level Jacksonville Center
05:45PM 30.2231 -81.9239 261° West 116 133 1,600 660 Climbing Jacksonville Center
05:46PM 30.2003 -81.9192 170° South 123 142 2,400 540 Climbing Jacksonville Center
05:47PM 30.1978 -81.8856 95° East 117 135 2,800 300 Climbing Jacksonville Center
05:48PM 30.1953 -81.8447 94° East 127 146 3,000 60 Climbing Jacksonville Center
05:49PM 30.1950 -81.7992 90° East 138 159 3,000 -60 Level Jacksonville Center
05:50PM 30.1947 -81.7511 90° East 142 163 2,900  Descending Jacksonville Center
05:51PM 30.1964 -81.7053 88° East 138 159 3,000 180 Climbing Jacksonville Center
05:52PM 30.1978 -81.6572 88° East 138 159 3,300 360 Climbing Jacksonville Center
05:53PM 30.1956 -81.6214 94° East 121 139 3,800 540 Climbing Jacksonville Center
05:54PM 30.1972 -81.5803 87° East 118 136 4,400 540 Climbing Jacksonville Center
05:55PM 30.2011 -81.5539 80° East 101 116 4,900 300 Climbing Jacksonville Center
05:56PM 30.2006 -81.5058 91° East 128 147 5,000  Climbing Jacksonville Center
05:57PM 30.1981 -81.4625 94° East 138 159 5,000  Level Jacksonville Center
05:58PM 30.1956 -81.4242 94° East 140 161 5,000  Level Jacksonville Center
05:59PM 30.1928 -81.3786 94° East 142 163 5,000  Level Jacksonville Center
06:00PM 30.1778 -81.3356 112° Southeast 151 174 5,100  Climbing Jacksonville Center
06:01PM 30.1461 -81.3217 159° South 152 175 5,000 -60 Descending Jacksonville Center
06:02PM 30.1528 -81.3503 285° West 123 142 5,000  Level Jacksonville Center
06:03PM 30.1925 -81.3569 352° North 125 144 5,000  Level Jacksonville Center
06:04PM 30.1969 -81.3858 280° West 149 171 5,000  Level Jacksonville Center
06:05PM 30.1656 -81.3622 147° Southeast 146 168 5,100  Climbing Jacksonville Center
06:06PM 30.1461 -81.3217 119° Southeast 137 158 5,000  Descending Jacksonville Center
06:08PM 30.1756 -81.3381 334° Northwest 116 133 5,100  Climbing Jacksonville Center
06:08PM 30.1947 -81.3569 320° Northwest 129 148 5,000 -60 Descending Jacksonville Center
06:09PM 30.1761 -81.3789 226° Southwest 162 186 5,000  Level Jacksonville Center
06:10PM 30.1528 -81.3431 127° Southeast 145 167 5,000 -60 Level Jacksonville Center
06:11PM 30.1800 -81.3450 356° North 125 144 4,900 -540 Descending Jacksonville Center
06:12PM 30.2053 -81.3711 318° Northwest 126 145 4,000 -960 Descending Jacksonville Center
06:13PM 30.2328 -81.3972 321° Northwest 123 142 3,000 -960 Descending Jacksonville Center
06:14PM 30.2517 -81.4186 316° Northwest 104 120 2,100 -720 Descending Jacksonville Center
06:15PM 30.2728 -81.4422 316° Northwest 95 109 1,500 -480 Descending Jacksonville Center
06:17PM 30.2939 -81.4636 319° Northwest 96 110 1,100 -480 Descending Jacksonville Center
06:17PM 30.3067 -81.4825 308° West 90 104 600 -420 Descending Jacksonville Center
06:18PM 30.3236 -81.5017 316° Northwest 88 101 300  Descending Jacksonville Center
06:19PM 30.3406 -81.5183 320° Northwest 81 93 600 540 Climbing Jacksonville Center
06:20PM 30.3633 -81.5131 11° North 118 136 1,400 600 Climbing Jacksonville Center
06:22PM 30.3544 -81.4578 101° East 120 138 2,300 540 Climbing Jacksonville Center
06:23PM 30.3542 -81.4289 91° East 132 152 2,700 420 Climbing Jacksonville Center
06:24PM 30.3433 -81.3931 109° East 119 137 3,100 180 Climbing Jacksonville Center
06:24PM 30.3367 -81.3594 103° East 127 146 3,100 -60 Level Jacksonville Center
06:26PM 30.3069 -81.3119 126° Southeast 146 168 3,000 -60 Descending Jacksonville Center
06:27PM 30.2819 -81.3242 203° Southwest 132 152 3,000  Level Jacksonville Center
06:28PM 30.2508 -81.3464 212° Southwest 125 144 3,000  Level Jacksonville Center
06:29PM 30.2219 -81.3686 214° Southwest 126 145 3,000 -180 Level Jacksonville Center
06:30PM 30.2286 -81.3947 286° West 110 127 2,700 -600 Descending Jacksonville Center
06:31PM 30.2517 -81.4136 325° Northwest 109 125 1,900 -420 Descending Jacksonville Center
06:32PM 30.2686 -81.4350 313° West 96 110 1,900 -300 Level Jacksonville Center
06:33PM 30.2878 -81.4589 313° West 89 102 1,300 -540 Descending Jacksonville Center
06:34PM 30.3047 -81.4803 313° West 98 113 900 -480 Descending Jacksonville Center
06:35PM 30.3236 -81.5017 316° Northwest 106 122 400 -300 Descending Jacksonville Center
06:36PM 30.3281 -81.5111 299° West 106 122 400  Level Jacksonville Center